Manama, Bahrain

3:08 PM AST on August 21, 2014 (GMT +0300)
Zallaq | Change Station
CLOSE
Current Station
Personal Weather Station
Location: Bahrain,
Elevation: 20 ft
Nearby Weather Stations

Elev 20 ft 26.05 °N, 50.48 °E | Updated 1 second ago

Clear
Clear
104.7 °F
Feels Like 126 °F
N
2.8
Wind Variable Wind from WSW
Gusts 5.0 mph

Today
High -- | Low -- °F
--% Chance of Precip.
Yesterday
High -- | Low -- °F
Precip. -- in
5:12 AM 6:08 PM
Waning Crescent, 14% visible
Pressure 29.50 in
Visibility -9999.0 miles
Clouds
Heat Index 126 °F
Dew Point 79 °F
Humidity 45%
Rainfall 0.00 in
Snow Depth Not available.
UV Not available.
Pollen Not available.
Air Quality Not available.
Flu Activity Not available.
METAR OEDF 211200Z 03005KT CAVOK 46/12 Q0999 NOSIG

More Conditions Fewer Conditions

Pressure 29.50 in
Visibility -9999.0 miles
Clouds
Heat Index 126 °F
Dew Point 79 °F
Humidity 45%
Rainfall 0.00 in
Snow Depth Not available.
UV Not available.
Pollen Not available.
Air Quality Not available.
Flu Activity Not available.
METAR OEDF 211200Z 03005KT CAVOK 46/12 Q0999 NOSIG

More Conditions Fewer Conditions

10-Day Weather Forecast

Almanac

Astronomy

Aug. 21, 2014 Rise Set
Actual Time 5:12 AM AST 6:08 PM AST
Civil Twilight 4:48 AM AST 6:32 PM AST
Nautical Twilight 4:20 AM AST 7:00 PM AST
Astronomical Twilight 3:51 AM AST 7:29 PM AST
Moon 1:32 AM AST 3:11 PM AST
Length of Visible Light 13h 43m
Length of Day
12h 56m
Tomorrow will be 1m 25s shorter.
Waning Crescent, 14% of the Moon is Illuminated
Today
Waning Crescent
Aug 25
New
Sep 2
First Quarter
Sep 8
Full
Sep 15
Last Quarter

Yesterday's Extremes

Country Highs Country Lows

Community

WunderPhotos

Upload Photos

1,745,882 photos uploaded!

Nearby

Snow Depth

Not available.

Earthquake Activity

City Distance Mag. Time & Date
No recent earthquake activity has been reported nearby.
Minimum magnitude displayed is 2.5.

Coastal Water Temperatures

Place Temperature
No Stations Reporting

Nearby Weather Stations